Time;durP1;ratioP1;P1;durP2;ratioP2;P2;SDS_P1;SDS_P2;PMS_P1;PMS_P2;Temp;Humidity;BMP_temperature;BMP_pressure;BME280_temperature;BME280_humidity;BME280_pressure;Samples;Min_cycle;Max_cycle;Signal;HPM_P1;HPM_P2
2022/09/20 00:03:21;;;;;;;3.22;0.95;;;8.60;99.90;;;;;;7366773;32;20106;-60
2022/09/20 00:07:23;;;;;;;6.57;1.10;;;8.60;99.90;;;;;;7369029;32;20111;-60
2022/09/20 00:11:28;;;;;;;5.90;0.90;;;8.60;99.90;;;;;;7368268;32;20195;-60
2022/09/20 00:15:30;;;;;;;3.17;1.08;;;8.70;99.90;;;;;;7362828;32;20163;-60
2022/09/20 00:19:31;;;;;;;3.47;1.00;;;8.70;99.90;;;;;;7361262;32;20122;-61
2022/09/20 00:23:33;;;;;;;5.45;1.23;;;8.70;99.90;;;;;;7367470;32;20130;-60
2022/09/20 00:27:35;;;;;;;8.45;1.52;;;8.80;99.90;;;;;;7368433;32;20145;-60
2022/09/20 00:31:38;;;;;;;10.02;1.52;;;8.80;99.90;;;;;;7369801;32;20111;-60
2022/09/20 00:35:44;;;;;;;8.95;1.52;;;8.90;99.90;;;;;;7372714;32;20578;-61
2022/09/20 00:39:45;;;;;;;8.95;1.35;;;8.90;99.90;;;;;;7367255;32;20122;-60
2022/09/20 00:43:47;;;;;;;9.35;1.40;;;8.90;99.90;;;;;;7371103;32;20187;-61
2022/09/20 00:48:05;;;;;;;6.82;1.62;;;8.90;99.90;;;;;;7368262;32;20098;-60
2022/09/20 00:52:07;;;;;;;6.70;1.52;;;8.90;99.90;;;;;;7360109;32;20115;-61
2022/09/20 00:56:15;;;;;;;3.67;1.37;;;9.00;99.90;;;;;;7361482;32;20634;-61
2022/09/20 01:00:17;;;;;;;5.75;1.48;;;9.00;99.90;;;;;;7363787;32;20157;-60
2022/09/20 01:04:21;;;;;;;4.12;1.50;;;9.00;99.90;;;;;;7367192;32;20192;-60
2022/09/20 01:08:24;;;;;;;6.47;1.42;;;9.00;99.90;;;;;;7369269;32;20114;-61
2022/09/20 01:12:29;;;;;;;6.43;1.50;;;9.10;99.90;;;;;;7370341;32;20118;-61
2022/09/20 01:16:32;;;;;;;9.32;1.65;;;9.20;99.90;;;;;;7369641;32;20126;-61
2022/09/20 01:20:37;;;;;;;5.37;1.37;;;9.20;99.90;;;;;;7365178;32;20220;-60
2022/09/20 01:25:05;;;;;;;6.78;1.60;;;9.20;99.90;;;;;;7366304;32;20159;-60
2022/09/20 01:29:09;;;;;;;6.78;1.62;;;9.20;99.90;;;;;;7365140;32;20111;-60
2022/09/20 01:33:27;;;;;;;8.90;1.58;;;9.20;99.90;;;;;;7361768;32;20122;-61
2022/09/20 01:37:37;;;;;;;;;;;9.20;99.90;;;;;;7362477;32;20134;-61
2022/09/20 01:41:48;;;;;;;8.60;1.40;;;9.20;99.90;;;;;;7365277;32;20351;-61
2022/09/20 01:45:49;;;;;;;12.40;1.80;;;9.20;99.90;;;;;;7365080;32;20126;-60
2022/09/20 01:50:29;;;;;;;4.80;1.67;;;9.10;99.90;;;;;;7357888;32;20156;-61
2022/09/20 01:54:43;;;;;;;5.90;1.40;;;9.10;99.90;;;;;;7365640;32;20103;-61
2022/09/20 01:59:27;;;;;;;5.57;1.60;;;9.10;99.90;;;;;;7359484;32;20121;-60
2022/09/20 02:04:09;;;;;;;6.05;1.50;;;9.10;99.90;;;;;;7355067;32;20527;-61
2022/09/20 02:08:35;;;;;;;5.40;1.65;;;9.10;99.90;;;;;;7359890;32;20198;-61
2022/09/20 02:12:55;;;;;;;6.32;1.67;;;9.10;99.90;;;;;;7360641;32;20193;-60
2022/09/20 02:17:05;;;;;;;5.85;1.60;;;9.10;99.90;;;;;;7349705;32;20444;-61
2022/09/20 02:21:37;;;;;;;5.70;1.50;;;9.10;99.90;;;;;;7362903;32;20095;-61
2022/09/20 02:25:41;;;;;;;16.35;1.80;;;9.00;99.90;;;;;;7360899;32;21081;-61
2022/09/20 02:30:05;;;;;;;6.03;1.87;;;9.00;99.90;;;;;;7358375;32;20099;-61
2022/09/20 02:34:28;;;;;;;2.58;1.52;;;9.00;99.90;;;;;;7366642;32;20228;-61
2022/09/20 02:38:41;;;;;;;2.67;1.12;;;9.00;99.90;;;;;;7361329;32;20618;-60
2022/09/20 02:42:54;;;;;;;4.22;1.40;;;9.00;99.90;;;;;;7366624;32;20307;-60
2022/09/20 02:47:19;;;;;;;6.95;1.80;;;9.00;99.90;;;;;;7358599;32;20113;-61
2022/09/20 02:51:40;;;;;;;5.05;1.45;;;9.00;99.90;;;;;;7360801;32;20661;-61
2022/09/20 02:56:24;;;;;;;5.97;1.50;;;9.00;99.90;;;;;;7361825;32;20123;-61
2022/09/20 03:00:38;;;;;;;4.93;1.60;;;9.00;99.90;;;;;;7358219;32;20623;-61
2022/09/20 03:04:55;;;;;;;6.40;1.83;;;9.00;99.90;;;;;;7364347;32;20503;-63
2022/09/20 03:09:33;;;;;;;2.62;1.62;;;9.00;99.90;;;;;;7369613;32;20103;-60
2022/09/20 03:13:54;;;;;;;;;;;9.10;99.90;;;;;;7370127;32;20096;-60
2022/09/20 03:18:05;;;;;;;4.15;1.70;;;9.10;99.90;;;;;;7364254;32;20022;-60
2022/09/20 03:22:25;;;;;;;4.80;1.60;;;9.10;99.90;;;;;;7369671;32;20153;-62
2022/09/20 03:26:55;;;;;;;8.75;2.00;;;9.10;99.90;;;;;;7375615;32;20103;-60
2022/09/20 03:31:06;;;;;;;4.72;1.77;;;9.10;99.90;;;;;;7375289;32;20601;-59
2022/09/20 03:35:33;;;;;;;6.72;2.47;;;9.10;99.90;;;;;;7369460;32;20130;-60
2022/09/20 03:40:05;;;;;;;8.35;2.05;;;9.10;99.90;;;;;;7363821;32;20915;-60
2022/09/20 03:44:48;;;;;;;4.80;1.90;;;9.10;99.90;;;;;;7373165;32;20115;-61
2022/09/20 03:48:53;;;;;;;6.37;2.30;;;9.10;99.90;;;;;;7369249;32;20147;-60
2022/09/20 03:53:32;;;;;;;5.15;2.47;;;9.10;99.90;;;;;;7368521;32;20126;-60
2022/09/20 03:57:37;;;;;;;6.03;2.42;;;9.20;99.90;;;;;;7367987;32;20251;-60
2022/09/20 04:01:48;;;;;;;6.30;2.40;;;9.20;99.90;;;;;;7364545;32;20460;-60
2022/09/20 04:06:09;;;;;;;7.97;2.15;;;9.20;99.90;;;;;;7366497;32;20117;-60
2022/09/20 04:10:49;;;;;;;8.60;2.30;;;9.20;99.90;;;;;;7367095;32;20280;-60
2022/09/20 04:15:24;;;;;;;5.93;2.50;;;9.20;99.90;;;;;;7355675;32;20612;-60
2022/09/20 04:19:40;;;;;;;4.93;2.17;;;9.30;99.90;;;;;;7364291;32;20099;-61
2022/09/20 04:23:48;;;;;;;3.25;1.80;;;9.30;99.90;;;;;;7367441;32;20538;-61
2022/09/20 04:27:59;;;;;;;8.30;2.15;;;9.30;99.90;;;;;;7362297;32;20197;-61
2022/09/20 04:32:13;;;;;;;5.93;1.83;;;9.30;99.90;;;;;;7362474;32;20536;-61
2022/09/20 04:36:49;;;;;;;4.37;1.85;;;9.30;99.90;;;;;;7371398;32;20146;-61
2022/09/20 04:41:15;;;;;;;5.55;1.90;;;9.30;99.90;;;;;;7364498;32;20222;-61
2022/09/20 04:46:10;;;;;;;3.90;1.92;;;9.40;99.90;;;;;;7368574;32;20116;-60
2022/09/20 04:50:37;;;;;;;6.78;3.80;;;9.30;99.90;;;;;;7258526;32;20133;-62
2022/09/20 04:55:14;;;;;;;9.43;5.90;;;9.40;99.90;;;;;;7317281;32;20182;-61
2022/09/20 04:59:52;;;;;;;7.15;3.20;;;9.40;99.90;;;;;;7356667;32;20561;-62
2022/09/20 05:04:06;;;;;;;14.55;9.70;;;9.40;99.90;;;;;;7350586;32;20175;-61
2022/09/20 05:08:51;;;;;;;18.35;15.32;;;9.40;99.90;;;;;;7350875;32;20179;-62
2022/09/20 05:13:12;;;;;;;12.85;9.45;;;9.50;99.90;;;;;;7358102;32;20680;-62
2022/09/20 05:17:32;;;;;;;20.77;15.80;;;9.50;99.90;;;;;;7359391;32;20122;-66
2022/09/20 05:22:02;;;;;;;21.23;13.60;;;9.50;99.90;;;;;;7353102;32;20265;-65
2022/09/20 05:26:38;;;;;;;24.15;12.60;;;9.50;99.90;;;;;;7366584;32;20171;-65
2022/09/20 05:30:46;;;;;;;22.20;15.10;;;9.50;99.90;;;;;;7362897;32;20105;-63
2022/09/20 05:35:14;;;;;;;15.70;11.23;;;9.50;99.90;;;;;;7358763;32;20182;-63
2022/09/20 05:39:18;;;;;;;12.20;8.27;;;9.60;99.90;;;;;;7355749;32;20170;-65
2022/09/20 05:43:32;;;;;;;13.80;5.25;;;9.60;99.90;;;;;;7358860;32;20209;-64
2022/09/20 05:48:09;;;;;;;7.97;4.90;;;9.60;99.90;;;;;;7354904;32;20260;-64
2022/09/20 05:52:29;;;;;;;12.32;5.47;;;9.60;99.90;;;;;;7363920;32;20238;-63
2022/09/20 05:57:09;;;;;;;17.02;9.30;;;9.70;99.90;;;;;;7358507;32;20253;-64
2022/09/20 06:01:17;;;;;;;15.55;10.70;;;9.70;99.90;;;;;;7366688;32;20095;-64
2022/09/20 06:05:45;;;;;;;15.95;13.40;;;9.90;99.90;;;;;;7366062;32;20129;-63
2022/09/20 06:10:06;;;;;;;10.63;4.37;;;9.90;99.90;;;;;;7373101;32;20104;-65
2022/09/20 06:14:39;;;;;;;10.52;4.30;;;9.90;99.90;;;;;;7375903;32;20119;-64
2022/09/20 06:18:56;;;;;;;6.15;3.20;;;10.00;99.90;;;;;;7367310;32;20243;-64
2022/09/20 06:23:02;;;;;;;11.27;4.80;;;10.10;99.90;;;;;;7361447;32;20564;-63
2022/09/20 06:27:27;;;;;;;7.55;3.83;;;10.20;99.90;;;;;;7363188;32;20129;-63
2022/09/20 06:31:29;;;;;;;6.93;3.60;;;10.20;99.90;;;;;;7363357;32;20103;-62
2022/09/20 06:35:44;;;;;;;9.95;3.85;;;10.30;99.90;;;;;;7364510;32;20131;-64
2022/09/20 06:44:40;;;;;;;8.82;4.07;;;10.50;99.90;;;;;;7364932;32;20474;-64
2022/09/20 06:48:41;;;;;;;11.10;4.00;;;10.60;99.90;;;;;;7370842;32;20190;-64
2022/09/20 06:52:44;;;;;;;11.98;3.60;;;10.70;99.90;;;;;;7365131;32;20591;-63
2022/09/20 06:56:48;;;;;;;9.38;4.57;;;10.80;99.90;;;;;;7358695;32;20433;-63
2022/09/20 07:00:49;;;;;;;9.10;4.15;;;10.90;99.90;;;;;;7358096;32;20500;-63
2022/09/20 07:04:54;;;;;;;9.68;4.45;;;10.90;99.90;;;;;;7359389;32;20293;-63
2022/09/20 07:08:56;;;;;;;11.00;4.93;;;10.90;99.90;;;;;;7361146;32;20121;-64
2022/09/20 07:12:59;;;;;;;12.07;6.20;;;11.00;99.90;;;;;;7358566;32;20527;-62
2022/09/20 07:17:02;;;;;;;12.93;6.78;;;11.20;99.90;;;;;;7355977;32;20234;-61
2022/09/20 07:21:05;;;;;;;16.00;7.10;;;11.20;99.90;;;;;;7358751;32;20126;-62
2022/09/20 07:25:07;;;;;;;13.13;6.20;;;11.40;99.90;;;;;;7355290;32;20186;-62
2022/09/20 07:29:08;;;;;;;11.02;6.68;;;11.40;99.90;;;;;;7354367;32;20496;-63
2022/09/20 07:33:15;;;;;;;20.15;6.75;;;11.40;99.90;;;;;;7356263;32;20107;-63
2022/09/20 07:37:18;;;;;;;17.73;6.93;;;11.50;99.90;;;;;;7355093;32;20277;-62
2022/09/20 07:41:21;;;;;;;12.57;5.97;;;11.70;99.90;;;;;;7354054;32;20260;-64
2022/09/20 07:45:23;;;;;;;14.18;6.50;;;11.80;99.90;;;;;;7355763;32;20383;-64
2022/09/20 07:49:29;;;;;;;10.13;6.22;;;11.60;99.90;;;;;;7358807;32;20103;-65
2022/09/20 07:53:31;;;;;;;14.90;6.25;;;11.70;99.90;;;;;;7358564;32;20123;-64
2022/09/20 07:57:37;;;;;;;17.75;8.02;;;11.90;99.90;;;;;;7361113;32;20126;-64
2022/09/20 08:01:39;;;;;;;11.95;6.80;;;12.10;99.90;;;;;;7363984;32;20636;-63
2022/09/20 08:05:42;;;;;;;21.67;14.00;;;12.40;99.90;;;;;;7361250;32;20971;-64
2022/09/20 08:09:43;;;;;;;10.80;3.42;;;12.60;99.90;;;;;;7357703;32;20115;-64
2022/09/20 08:13:47;;;;;;;10.07;3.00;;;12.80;99.90;;;;;;7359071;32;20118;-64
2022/09/20 08:18:08;;;;;;;7.85;3.55;;;12.90;99.90;;;;;;7372650;32;20118;-65
2022/09/20 08:22:11;;;;;;;10.48;2.75;;;12.90;99.90;;;;;;7358965;32;20242;-65
2022/09/20 08:26:25;;;;;;;9.00;3.12;;;13.00;99.90;;;;;;7358503;32;20249;-63
2022/09/20 08:30:27;;;;;;;12.37;3.47;;;13.20;99.90;;;;;;7356777;32;20120;-64
2022/09/20 08:34:29;;;;;;;20.70;11.25;;;13.50;99.90;;;;;;7361442;32;20106;-64
2022/09/20 08:38:32;;;;;;;7.65;3.15;;;13.50;99.90;;;;;;7359879;32;20217;-63
2022/09/20 08:42:54;;;;;;;9.52;1.90;;;13.60;99.90;;;;;;7359087;32;20478;-63
2022/09/20 08:47:16;;;;;;;9.40;1.58;;;13.90;99.90;;;;;;7355548;32;20129;-64
2022/09/20 08:51:20;;;;;;;10.02;1.65;;;13.80;99.90;;;;;;7355946;32;20253;-63
2022/09/20 08:55:34;;;;;;;11.70;1.77;;;13.40;99.90;;;;;;7357662;32;20104;-63
2022/09/20 08:59:38;;;;;;;6.62;1.70;;;13.30;99.90;;;;;;7356481;32;20107;-63
2022/09/20 09:03:40;;;;;;;10.35;1.77;;;13.20;99.90;;;;;;7361135;32;20467;-64
2022/09/20 09:07:41;;;;;;;5.00;1.40;;;13.10;99.90;;;;;;7359485;32;20119;-62
2022/09/20 09:11:44;;;;;;;13.38;2.15;;;13.20;99.90;;;;;;7359170;32;20182;-64
2022/09/20 09:15:53;;;;;;;8.07;2.15;;;13.70;99.90;;;;;;7360797;32;20151;-63
2022/09/20 09:20:15;;;;;;;6.32;1.87;;;14.30;99.90;;;;;;7361114;32;20225;-61
2022/09/20 09:24:19;;;;;;;9.13;2.05;;;14.40;99.90;;;;;;7361557;32;20091;-63
2022/09/20 09:28:28;;;;;;;8.15;2.15;;;14.30;99.90;;;;;;7358927;32;20099;-63
2022/09/20 09:32:31;;;;;;;11.02;2.20;;;14.00;99.90;;;;;;7359104;32;20099;-62
2022/09/20 09:36:42;;;;;;;7.55;1.58;;;14.00;99.90;;;;;;7357426;32;20198;-63
2022/09/20 09:40:53;;;;;;;8.90;1.25;;;14.10;99.90;;;;;;7355338;32;20099;-63
2022/09/20 09:45:10;;;;;;;14.52;4.90;;;14.20;99.90;;;;;;7362538;32;20130;-63
2022/09/20 09:49:18;;;;;;;8.40;3.03;;;14.40;99.90;;;;;;7359253;32;20226;-62
2022/09/20 09:53:21;;;;;;;7.18;1.25;;;14.60;99.90;;;;;;7352311;32;20182;-63
2022/09/20 09:57:35;;;;;;;7.45;0.98;;;14.90;99.90;;;;;;7354637;32;20205;-63
2022/09/20 10:01:58;;;;;;;7.53;1.05;;;15.50;99.90;;;;;;7362975;32;20098;-64
2022/09/20 10:06:38;;;;;;;8.30;0.93;;;16.10;99.90;;;;;;7358160;32;20624;-64
2022/09/20 10:11:06;;;;;;;8.30;1.10;;;16.00;99.90;;;;;;7346446;32;20186;-62
2022/09/20 10:15:10;;;;;;;6.53;1.23;;;15.50;99.90;;;;;;7336196;31;20678;-63
2022/09/20 10:19:22;;;;;;;6.60;0.85;;;15.30;99.90;;;;;;7355050;32;20268;-63
2022/09/20 10:23:34;;;;;;;3.42;0.70;;;15.10;99.90;;;;;;7360409;32;20125;-63
2022/09/20 10:28:35;;;;;;;8.60;0.80;;;15.00;99.90;;;;;;7374179;32;21047;-63
2022/09/20 10:32:44;;;;;;;6.85;1.23;;;14.70;99.90;;;;;;7361263;32;20198;-62
2022/09/20 10:36:59;;;;;;;7.03;0.95;;;14.50;99.90;;;;;;7363659;32;20559;-63
2022/09/20 10:46:31;;;;;;;7.72;1.10;;;14.10;99.90;;;;;;7369347;32;20111;-62
2022/09/20 10:50:51;;;;;;;5.93;1.70;;;14.00;99.90;;;;;;7358408;32;20197;-62
2022/09/20 10:55:06;;;;;;;7.82;1.73;;;14.10;99.90;;;;;;7369070;32;20538;-62
2022/09/20 10:59:36;;;;;;;11.50;2.22;;;14.40;99.90;;;;;;7367442;32;20151;-64
2022/09/20 11:03:48;;;;;;;5.70;1.55;;;14.70;99.90;;;;;;7362090;32;20102;-64
2022/09/20 11:07:57;;;;;;;7.97;1.37;;;14.90;99.90;;;;;;7360197;32;20182;-62
2022/09/20 11:12:10;;;;;;;5.53;1.62;;;15.10;99.90;;;;;;7362218;32;20806;-60
2022/09/20 11:16:17;;;;;;;11.00;1.58;;;15.20;99.90;;;;;;7364342;32;20237;-57
2022/09/20 11:20:34;;;;;;;5.97;1.85;;;15.50;99.90;;;;;;7369205;32;20107;-58
2022/09/20 11:24:48;;;;;;;6.75;1.40;;;15.00;99.90;;;;;;7371496;32;20689;-59
2022/09/20 11:28:56;;;;;;;5.65;1.33;;;15.10;99.90;;;;;;7374027;32;20098;-59
2022/09/20 11:33:31;;;;;;;7.80;1.40;;;15.30;99.90;;;;;;7378080;32;20102;-58
2022/09/20 11:37:38;;;;;;;3.67;1.08;;;15.50;99.90;;;;;;7343689;32;20194;-63
2022/09/20 11:41:40;;;;;;;3.90;1.07;;;15.80;99.90;;;;;;7371147;32;20242;-63
2022/09/20 11:45:45;;;;;;;4.62;0.73;;;16.00;99.90;;;;;;7372448;32;20649;-64
2022/09/20 11:50:21;;;;;;;5.53;1.20;;;15.70;99.90;;;;;;7371835;32;20118;-63
2022/09/20 11:54:34;;;;;;;6.80;1.27;;;15.30;99.90;;;;;;7368835;32;20621;-64
2022/09/20 11:58:47;;;;;;;6.25;1.40;;;14.80;99.90;;;;;;7367874;32;20523;-64
2022/09/20 12:02:51;;;;;;;6.28;1.15;;;14.30;99.90;;;;;;7371452;32;20562;-63
2022/09/20 12:07:13;;;;;;;8.50;1.10;;;14.30;99.90;;;;;;7368846;32;20204;-63
2022/09/20 12:11:34;;;;;;;6.78;1.33;;;14.20;99.90;;;;;;7369405;32;22099;-63
2022/09/20 12:15:45;;;;;;;5.18;1.23;;;14.20;99.90;;;;;;7376201;32;20095;-63
2022/09/20 12:19:47;;;;;;;6.07;1.17;;;14.00;99.90;;;;;;7378335;32;20111;-64
2022/09/20 12:23:52;;;;;;;8.52;1.10;;;13.90;99.90;;;;;;7374044;32;20102;-63
2022/09/20 12:27:55;;;;;;;4.72;1.10;;;14.00;99.90;;;;;;7368212;32;20122;-63
2022/09/20 12:32:01;;;;;;;5.47;1.30;;;14.20;99.90;;;;;;7364763;32;20681;-63
2022/09/20 12:36:15;;;;;;;6.25;0.90;;;14.20;99.90;;;;;;7364085;32;20234;-63
2022/09/20 12:40:17;;;;;;;4.60;1.02;;;14.60;99.90;;;;;;7368395;32;20111;-64
2022/09/20 12:44:25;;;;;;;7.70;1.20;;;14.60;99.90;;;;;;7371268;32;20590;-63
2022/09/20 12:48:33;;;;;;;4.50;0.90;;;14.70;99.90;;;;;;7373254;32;20122;-63
2022/09/20 12:52:55;;;;;;;6.00;1.15;;;15.20;99.90;;;;;;7376554;32;20122;-64
2022/09/20 12:57:16;;;;;;;6.10;1.10;;;15.40;99.90;;;;;;7369923;32;20230;-63
2022/09/20 13:01:21;;;;;;;7.40;0.80;;;15.60;99.90;;;;;;7364904;32;20257;-64
2022/09/20 13:05:35;;;;;;;3.30;0.62;;;15.70;99.90;;;;;;7375178;32;20271;-64
2022/09/20 13:09:38;;;;;;;4.30;0.70;;;15.80;99.90;;;;;;7366649;32;20121;-63
2022/09/20 13:13:56;;;;;;;2.58;0.52;;;15.80;99.90;;;;;;7368602;32;20111;-65
2022/09/20 13:18:00;;;;;;;2.50;0.50;;;15.90;99.90;;;;;;7359624;32;20486;-62
2022/09/20 13:22:13;;;;;;;2.78;0.50;;;16.20;99.90;;;;;;7368597;32;20102;-63
2022/09/20 13:26:21;;;;;;;3.35;0.77;;;16.30;99.90;;;;;;7370785;32;20091;-63
2022/09/20 13:30:27;;;;;;;4.90;0.90;;;16.30;99.90;;;;;;7362609;32;20737;-63
2022/09/20 13:34:28;;;;;;;3.78;0.60;;;16.20;99.90;;;;;;7373155;32;20114;-63
2022/09/20 13:38:30;;;;;;;3.58;0.70;;;16.40;99.90;;;;;;7374750;32;20099;-63
2022/09/20 13:42:36;;;;;;;3.65;1.05;;;16.40;99.90;;;;;;7370257;31;20202;-63
2022/09/20 13:46:43;;;;;;;1.87;0.50;;;16.40;99.90;;;;;;7372610;32;20125;-64
2022/09/20 13:50:44;;;;;;;2.58;0.25;;;16.00;99.90;;;;;;7366550;32;20181;-63
2022/09/20 13:54:53;;;;;;;4.05;0.60;;;15.80;99.90;;;;;;7366766;32;20126;-63
2022/09/20 13:58:57;;;;;;;3.05;0.50;;;15.70;99.90;;;;;;7371500;32;20152;-63
2022/09/20 14:02:59;;;;;;;4.12;0.60;;;15.70;99.90;;;;;;7367844;32;20107;-64
2022/09/20 14:07:05;;;;;;;2.03;0.70;;;16.00;99.90;;;;;;7362315;32;20654;-64
2022/09/20 14:11:19;;;;;;;4.05;0.70;;;16.30;99.90;;;;;;7369319;32;20486;-62
2022/09/20 14:15:22;;;;;;;3.17;0.60;;;16.40;99.90;;;;;;7366395;32;20303;-63
2022/09/20 14:19:31;;;;;;;3.17;0.50;;;16.60;99.90;;;;;;7369399;32;20182;-62
2022/09/20 14:24:01;;;;;;;3.75;0.50;;;16.90;99.90;;;;;;7365079;32;20234;-63
2022/09/20 14:28:17;;;;;;;4.62;0.90;;;17.20;99.90;;;;;;7363170;32;20174;-63
2022/09/20 14:32:19;;;;;;;5.87;0.98;;;17.20;99.90;;;;;;7364033;32;20103;-63
2022/09/20 14:36:26;;;;;;;6.47;0.80;;;17.10;99.90;;;;;;7368935;32;20104;-64
2022/09/20 14:40:41;;;;;;;7.22;1.52;;;17.00;99.90;;;;;;7363365;32;20148;-63
2022/09/20 14:44:43;;;;;;;9.63;0.95;;;16.60;99.90;;;;;;7370952;32;20210;-63
2022/09/20 14:48:44;;;;;;;7.20;0.80;;;16.20;99.90;;;;;;7369217;32;20567;-63
2022/09/20 14:52:57;;;;;;;2.60;0.60;;;15.80;99.90;;;;;;7370271;32;20141;-63
2022/09/20 14:57:00;;;;;;;5.90;0.85;;;15.50;99.90;;;;;;7357273;32;20194;-63
2022/09/20 15:01:18;;;;;;;4.00;0.60;;;15.40;99.90;;;;;;7368474;32;20111;-63
2022/09/20 15:05:25;;;;;;;3.55;0.55;;;15.00;99.90;;;;;;7367272;32;20236;-64
2022/09/20 15:09:28;;;;;;;3.40;0.70;;;14.90;99.90;;;;;;7356821;32;20213;-64
2022/09/20 15:13:29;;;;;;;6.15;0.80;;;14.80;99.90;;;;;;7366856;32;20443;-63
2022/09/20 15:17:31;;;;;;;2.45;0.50;;;14.70;99.90;;;;;;7373288;32;20103;-63
2022/09/20 15:21:33;;;;;;;3.60;0.52;;;14.60;99.90;;;;;;7370777;32;20492;-63
2022/09/20 15:25:34;;;;;;;4.53;1.00;;;14.50;99.90;;;;;;7367940;32;20118;-63
2022/09/20 15:29:36;;;;;;;6.00;0.85;;;14.50;99.90;;;;;;7373380;32;20137;-63
2022/09/20 15:33:38;;;;;;;6.78;0.95;;;14.50;99.90;;;;;;7359999;32;20179;-63
2022/09/20 15:37:40;;;;;;;6.55;0.80;;;14.40;99.90;;;;;;7358026;32;20209;-63
2022/09/20 15:41:43;;;;;;;6.43;1.08;;;14.20;99.90;;;;;;7375156;32;20185;-64
2022/09/20 15:45:49;;;;;;;3.72;0.70;;;14.30;99.90;;;;;;7373085;31;20138;-64
2022/09/20 15:49:51;;;;;;;5.65;0.80;;;14.30;99.90;;;;;;7365145;32;20205;-63
2022/09/20 15:53:55;;;;;;;3.37;0.50;;;14.40;99.90;;;;;;7373527;32;20208;-64
2022/09/20 15:57:57;;;;;;;6.10;0.85;;;14.50;99.90;;;;;;7372932;32;20124;-63
2022/09/20 16:01:59;;;;;;;6.10;0.80;;;14.60;99.90;;;;;;7365097;32;20099;-63
2022/09/20 16:06:03;;;;;;;4.22;0.98;;;14.60;99.90;;;;;;7372453;32;20179;-64
2022/09/20 16:10:06;;;;;;;6.07;0.93;;;14.60;99.90;;;;;;7366012;32;20121;-63
2022/09/20 16:14:07;;;;;;;3.12;0.77;;;14.70;99.90;;;;;;7366769;32;20103;-63
2022/09/20 16:22:32;;;;;;;5.05;0.80;;;14.60;99.90;;;;;;7367500;32;20447;-63
2022/09/20 16:26:35;;;;;;;4.50;1.30;;;14.50;99.90;;;;;;7370138;32;20103;-63
2022/09/20 16:30:36;;;;;;;4.28;0.88;;;14.30;99.90;;;;;;7367448;32;20533;-64
2022/09/20 16:34:38;;;;;;;6.03;1.12;;;14.30;99.90;;;;;;7369409;32;20128;-63
2022/09/20 16:38:40;;;;;;;5.68;1.58;;;14.30;99.90;;;;;;7363034;32;20126;-64
2022/09/20 16:42:44;;;;;;;5.82;1.02;;;14.20;99.90;;;;;;7375642;32;20108;-62
2022/09/20 16:46:52;;;;;;;4.55;1.52;;;14.30;99.90;;;;;;7374437;32;20496;-62
2022/09/20 16:50:53;;;;;;;6.95;1.70;;;14.10;99.90;;;;;;7365590;32;20194;-62
2022/09/20 16:54:55;;;;;;;6.87;2.50;;;14.10;99.90;;;;;;7366420;32;20099;-63
2022/09/20 16:58:57;;;;;;;4.00;0.80;;;14.20;99.90;;;;;;7371906;32;20103;-62
2022/09/20 17:02:59;;;;;;;3.85;1.02;;;14.10;99.90;;;;;;7366749;32;20107;-63
2022/09/20 17:07:01;;;;;;;3.70;0.85;;;13.90;99.90;;;;;;7367360;32;20571;-63
2022/09/20 17:11:07;;;;;;;7.68;0.77;;;13.70;99.90;;;;;;7361352;32;20439;-62
2022/09/20 17:15:11;;;;;;;7.72;1.30;;;13.70;99.90;;;;;;7361638;32;20117;-65
2022/09/20 17:19:18;;;;;;;5.70;1.08;;;13.50;99.90;;;;;;7365986;32;20217;-64
2022/09/20 17:23:20;;;;;;;5.30;1.35;;;13.40;99.90;;;;;;7375122;32;20506;-63
2022/09/20 17:27:23;;;;;;;7.75;1.35;;;13.30;99.90;;;;;;7365317;32;20118;-63
2022/09/20 17:31:31;;;;;;;6.97;1.58;;;13.20;99.90;;;;;;7365344;32;20129;-63
2022/09/20 17:35:32;;;;;;;9.65;3.40;;;13.10;99.90;;;;;;7366847;32;20127;-63
2022/09/20 17:39:34;;;;;;;10.35;3.42;;;12.90;99.90;;;;;;7371768;32;20385;-64
2022/09/20 17:43:36;;;;;;;7.10;3.47;;;12.80;99.90;;;;;;7362109;32;20183;-63
2022/09/20 17:47:41;;;;;;;9.70;2.28;;;12.70;99.90;;;;;;7366256;32;20095;-60
2022/09/20 17:51:45;;;;;;;10.45;1.58;;;12.60;99.90;;;;;;7365306;32;20121;-61
2022/09/20 17:55:54;;;;;;;5.47;1.23;;;12.50;99.90;;;;;;7364009;32;20602;-61
2022/09/20 17:59:56;;;;;;;37.47;20.23;;;12.30;99.90;;;;;;7368859;32;20520;-62
2022/09/20 18:04:00;;;;;;;13.62;6.15;;;12.10;99.90;;;;;;7368698;32;20110;-62
2022/09/20 18:08:03;;;;;;;9.00;2.22;;;12.00;99.90;;;;;;7364615;32;20153;-61
2022/09/20 18:12:05;;;;;;;6.12;1.80;;;11.90;99.90;;;;;;7371251;32;20726;-60
2022/09/20 18:16:11;;;;;;;6.20;2.70;;;11.70;99.90;;;;;;7366965;32;20189;-60
2022/09/20 18:20:13;;;;;;;11.67;7.63;;;11.60;99.90;;;;;;7374402;32;20198;-61
2022/09/20 18:24:15;;;;;;;7.03;5.97;;;11.50;99.90;;;;;;7373979;32;20700;-62
2022/09/20 18:28:17;;;;;;;9.65;3.00;;;11.40;99.90;;;;;;7368996;31;20119;-62
2022/09/20 18:32:19;;;;;;;10.80;5.93;;;11.20;99.90;;;;;;7374866;32;20182;-60
2022/09/20 18:36:24;;;;;;;9.90;8.25;;;11.10;99.90;;;;;;7373970;32;20571;-61
2022/09/20 18:40:28;;;;;;;12.63;4.85;;;10.90;99.90;;;;;;7366308;32;20103;-60
2022/09/20 18:44:32;;;;;;;9.18;3.55;;;10.80;99.90;;;;;;7369493;32;20114;-60
2022/09/20 18:48:37;;;;;;;10.20;3.62;;;10.70;99.90;;;;;;7374949;32;20516;-60
2022/09/20 18:52:39;;;;;;;8.98;4.35;;;10.60;99.90;;;;;;7366794;32;20111;-60
2022/09/20 18:56:43;;;;;;;6.20;3.37;;;10.50;99.90;;;;;;7374931;32;20126;-60
2022/09/20 19:00:50;;;;;;;8.73;3.97;;;10.40;99.90;;;;;;7361888;32;20103;-60
2022/09/20 19:05:16;;;;;;;7.00;2.95;;;10.30;99.90;;;;;;7370774;32;20129;-60
2022/09/20 19:09:31;;;;;;;7.87;3.75;;;10.20;99.90;;;;;;7367679;32;20614;-60
2022/09/20 19:13:43;;;;;;;8.32;4.25;;;10.00;99.90;;;;;;7380159;32;20333;-60
2022/09/20 19:17:46;;;;;;;6.78;3.08;;;10.10;99.90;;;;;;7369830;32;20717;-60
2022/09/20 19:22:29;;;;;;;11.12;7.15;;;9.90;99.90;;;;;;7372774;32;20765;-60
2022/09/20 19:26:39;;;;;;;7.62;3.20;;;9.80;99.90;;;;;;7359013;32;20234;-60
2022/09/20 19:30:41;;;;;;;13.73;8.57;;;9.70;99.90;;;;;;7366387;32;20198;-60
2022/09/20 19:34:44;;;;;;;12.95;5.57;;;9.60;99.90;;;;;;7367142;32;20125;-62
2022/09/20 19:39:14;;;;;;;8.73;4.72;;;9.50;99.90;;;;;;7359503;32;20765;-62
2022/09/20 19:43:30;;;;;;;6.28;3.00;;;9.50;99.90;;;;;;7366092;32;20118;-62
2022/09/20 19:47:46;;;;;;;11.70;7.70;;;9.50;99.90;;;;;;7362145;32;20227;-63
2022/09/20 19:51:47;;;;;;;4.10;2.60;;;9.40;99.90;;;;;;7369145;32;20258;-62
2022/09/20 19:55:54;;;;;;;4.95;2.00;;;9.40;99.90;;;;;;7367180;32;20466;-59
2022/09/20 19:59:56;;;;;;;8.75;1.42;;;9.30;99.90;;;;;;7381129;32;20125;-62
2022/09/20 20:03:58;;;;;;;8.50;2.03;;;9.30;99.90;;;;;;7379403;32;20103;-61
2022/09/20 20:08:13;;;;;;;16.55;10.80;;;9.30;99.90;;;;;;7366118;32;20107;-61
2022/09/20 20:12:41;;;;;;;14.23;9.13;;;9.30;99.90;;;;;;7387719;32;20248;-62
2022/09/20 20:17:25;;;;;;;8.18;5.53;;;9.30;99.90;;;;;;7377009;32;20183;-63
2022/09/20 20:21:47;;;;;;;13.75;7.22;;;9.30;99.90;;;;;;7376186;32;20161;-62
2022/09/20 20:26:20;;;;;;;6.85;3.70;;;9.30;99.90;;;;;;7381521;32;20524;-63
2022/09/20 20:30:21;;;;;;;9.30;6.53;;;9.20;99.90;;;;;;7377625;32;20106;-61
2022/09/20 20:34:25;;;;;;;14.32;9.15;;;9.30;99.90;;;;;;7379320;32;20129;-62
2022/09/20 20:38:27;;;;;;;10.43;8.23;;;9.40;99.90;;;;;;7365343;32;20127;-62
2022/09/20 20:42:32;;;;;;;10.32;4.18;;;9.40;99.90;;;;;;7372841;32;20269;-60
2022/09/20 20:46:34;;;;;;;28.85;21.05;;;9.40;99.90;;;;;;7370061;32;20268;-61
2022/09/20 20:50:36;;;;;;;23.98;11.73;;;9.50;99.90;;;;;;7364734;32;20211;-62
2022/09/20 20:54:38;;;;;;;5.95;2.67;;;9.50;99.90;;;;;;7371709;32;20479;-60
2022/09/20 20:58:41;;;;;;;16.33;11.23;;;9.50;99.90;;;;;;7372118;32;20172;-61
2022/09/20 21:02:43;;;;;;;10.00;5.95;;;9.50;99.90;;;;;;7375362;32;20171;-61
2022/09/20 21:06:46;;;;;;;10.68;4.40;;;9.50;99.90;;;;;;7369115;32;20189;-62
2022/09/20 21:10:47;;;;;;;14.13;3.33;;;9.50;99.90;;;;;;7369865;32;20571;-60
2022/09/20 21:14:49;;;;;;;7.12;2.12;;;9.50;99.90;;;;;;7368536;32;20102;-60
2022/09/20 21:18:51;;;;;;;6.53;3.20;;;9.50;99.90;;;;;;7363629;32;20251;-63
2022/09/20 21:22:55;;;;;;;5.55;2.80;;;9.40;99.90;;;;;;7384360;32;20556;-60
2022/09/20 21:26:56;;;;;;;10.82;3.60;;;9.30;99.90;;;;;;7370469;32;20564;-62
2022/09/20 21:30:58;;;;;;;8.55;3.37;;;9.30;99.90;;;;;;7358910;32;20111;-61
2022/09/20 21:35:05;;;;;;;;;;;9.10;99.90;;;;;;7370835;32;20547;-61
2022/09/20 21:39:07;;;;;;;7.80;5.72;;;9.10;99.90;;;;;;7368823;32;20141;-63
2022/09/20 21:43:09;;;;;;;9.40;4.57;;;9.00;99.90;;;;;;7368228;32;20549;-60
2022/09/20 21:47:18;;;;;;;8.68;3.47;;;9.00;99.90;;;;;;7362533;32;20107;-60
2022/09/20 21:51:21;;;;;;;6.82;3.33;;;8.90;99.90;;;;;;7369305;32;20130;-62
2022/09/20 21:55:23;;;;;;;6.50;2.90;;;8.80;99.90;;;;;;7371592;31;20122;-60
2022/09/20 21:59:25;;;;;;;6.60;2.33;;;8.80;99.90;;;;;;7363463;32;20099;-60
2022/09/20 22:03:35;;;;;;;6.47;2.28;;;8.70;99.90;;;;;;7371447;32;20126;-61